Wisconsin Rapids, WI (54495)

6:39 PM CST on December 04, 2016 (GMT -0600)
| | Change Station

Elev -9999 ft 0.00 °N, 0.00 °E | Updated

Cloudy
Cloudy
32 °F
Feels Like 26 °F
N
7
Wind Variable Wind from SW
Gusts mph

Today
High -- | Low -- °F
--% Chance of Precip.
Yesterday
High -- | Low -- °F
Precip. -- in
Pressure 29.87 in
Visibility 5.0 miles
Clouds Overcast 600 ft
Windchill 26 °F
Dew Point 31 °F
Humidity 95%
Rainfall --
Snow Depth Not available.
7:19 AM 4:20 PM
Waxing Crescent, 26% visible
METAR KISW 042354Z AUTO 22006KT 5SM BR OVC006 M01/M01 A2983 RMK AO2 SNE11 SLP114 P0000 60017 I1000 I6000 T10061011 11006 21006 56012 $
Pressure 29.87 in
Visibility 5.0 miles
Clouds Overcast 600 ft
Windchill 26 °F
Dew Point 31 °F
Humidity 95%
Rainfall --
Snow Depth Not available.
7:19 AM 4:20 PM
Waxing Crescent, 26% visible
METAR KISW 042354Z AUTO 22006KT 5SM BR OVC006 M01/M01 A2983 RMK AO2 SNE11 SLP114 P0000 60017 I1000 I6000 T10061011 11006 21006 56012 $

10-Day Weather Forecast

Almanac

Astronomy

Dec. 04, 2016 Rise Set
Actual Time
Civil Twilight
Nautical Twilight
Astronomical Twilight
Moon
Length of Visible Light
Length of Day
Tomorrow will be .
, % of the Moon is Illuminated

Today's Extremes

State Highs State Lows

Community

WunderPhotos

Upload Photos

1,955,725 photos uploaded!

WunderBlog® & News

Nearby

Air Quality

  Air Quality AQ Index Pollutant
Not available.

Snow Depth

Station Depth Elevation

Earthquake Activity

City Distance Mag. Time & Date
Minimum magnitude displayed is 2.5.

Coastal Water Temperatures

Place Temperature

Stations

Nearby Weather Stations

Station Location Temp. Windchill Dew Point Humidity Wind Precip. Elev Updated Type
                   

Watches & Warnings

There are currently no watches in effect.